| time (UTC) | temp C | wind direction | speed KPH | gust KPH | rain 1hr cm | rain 24hr cm | rain mn cm | humidity % | barometer mb |
| 20260504034512 | 16 | 288 | 1.6 | 6.4 | 0.00 | 0.15 | 0.15 | 31 | 975.3 |
| 20260504034006 | 16 | 288 | 3.2 | 6.4 | 0.00 | 0.15 | 0.15 | 30 | 975.3 |
| 20260504033459 | 16 | 289 | 3.2 | 6.4 | 0.00 | 0.15 | 0.15 | 30 | 975.4 |
| 20260504032447 | 16 | 290 | 1.6 | 3.2 | 0.00 | 0.15 | 0.15 | 30 | 975.3 |
| 20260504031941 | 16 | 290 | 0.0 | 3.2 | 0.00 | 0.15 | 0.15 | 29 | 975.3 |
| 20260504030928 | 16 | 290 | 1.6 | 6.4 | 0.00 | 0.15 | 0.15 | 29 | 975.4 |
| 20260504030422 | 17 | 290 | 3.2 | 6.4 | 0.00 | 0.15 | 0.15 | 29 | 975.3 |
| 20260504025917 | 17 | 290 | 1.6 | 4.8 | 0.00 | 0.15 | 0.15 | 29 | 975.3 |
| 20260504025410 | 17 | 291 | 1.6 | 4.8 | 0.00 | 0.15 | 0.15 | 29 | 975.2 |
| 20260504024359 | 17 | 291 | 1.6 | 3.2 | 0.00 | 0.15 | 0.15 | 28 | 975.1 |
| 20260504023853 | 17 | 291 | 1.6 | 4.8 | 0.00 | 0.15 | 0.15 | 28 | 975.0 |
| 20260504023347 | 17 | 291 | 1.6 | 4.8 | 0.00 | 0.15 | 0.15 | 28 | 974.9 |
| 20260504022841 | 17 | 291 | 1.6 | 4.8 | 0.00 | 0.15 | 0.15 | 27 | 974.9 |
| 20260504022335 | 17 | 291 | 1.6 | 3.2 | 0.00 | 0.15 | 0.15 | 27 | 974.9 |
| 20260504021322 | 18 | 291 | 1.6 | 4.8 | 0.00 | 0.15 | 0.15 | 28 | 975.0 |
| 20260504020816 | 18 | 291 | 1.6 | 4.8 | 0.00 | 0.15 | 0.15 | 27 | 975.0 |
| 20260504020311 | 18 | 291 | 1.6 | 4.8 | 0.00 | 0.15 | 0.15 | 28 | 974.9 |
| 20260504015805 | 18 | 291 | 1.6 | 3.2 | 0.00 | 0.15 | 0.15 | 27 | 974.9 |
| 20260504015259 | 18 | 291 | 1.6 | 4.8 | 0.00 | 0.15 | 0.15 | 27 | 974.9 |
| 20260504014246 | 19 | 291 | 1.6 | 4.8 | 0.00 | 0.15 | 0.15 | 26 | 974.9 |
| 20260504013741 | 19 | 291 | 3.2 | 4.8 | 0.00 | 0.15 | 0.15 | 26 | 974.9 |
| 20260504013234 | 19 | 291 | 3.2 | 4.8 | 0.00 | 0.15 | 0.15 | 26 | 974.9 |
| 20260504012224 | 20 | 292 | 3.2 | 8.0 | 0.00 | 0.15 | 0.15 | 26 | 974.9 |
| 20260504011718 | 20 | 291 | 1.6 | 4.8 | 0.00 | 0.15 | 0.15 | 26 | 974.7 |
| 20260504011212 | 20 | 291 | 1.6 | 3.2 | 0.00 | 0.15 | 0.15 | 25 | 974.5 |
| 20260504010705 | 20 | 291 | 1.6 | 3.2 | 0.00 | 0.15 | 0.15 | 25 | 974.3 |
| 20260504010158 | 20 | 291 | 1.6 | 1.6 | 0.00 | 0.15 | 0.15 | 25 | 974.2 |
| 20260504005653 | 20 | 291 | 1.6 | 3.2 | 0.00 | 0.15 | 0.15 | 24 | 974.2 |
| 20260504005146 | 21 | 291 | 1.6 | 4.8 | 0.00 | 0.15 | 0.15 | 23 | 974.3 |
| 20260504004647 | 21 | 291 | 1.6 | 4.8 | 0.00 | 0.15 | 0.15 | 23 | 974.2 |
| 20260504004145 | 21 | 291 | 3.2 | 8.0 | 0.00 | 0.15 | 0.15 | 22 | 974.2 |
| 20260504003144 | 21 | 289 | 4.8 | 11.3 | 0.00 | 0.15 | 0.15 | 21 | 974.1 |
| 20260504002645 | 21 | 285 | 4.8 | 11.3 | 0.00 | 0.15 | 0.15 | 21 | 974.0 |
| 20260504001647 | 22 | 298 | 4.8 | 14.5 | 0.00 | 0.15 | 0.15 | 20 | 974.0 |
| 20260504000647 | 22 | 263 | 6.4 | 16.1 | 0.00 | 0.15 | 0.15 | 18 | 973.9 |
| 20260504000147 | 22 | 278 | 6.4 | 14.5 | 0.00 | 0.15 | 0.15 | 18 | 973.9 |
| 20260503235644 | 22 | 307 | 8.0 | 20.9 | 0.00 | 0.15 | 0.15 | 19 | 973.9 |
| 20260503235143 | 22 | 299 | 9.7 | 20.9 | 0.00 | 0.15 | 0.15 | 18 | 973.8 |
| 20260503234645 | 22 | 273 | 9.7 | 20.9 | 0.00 | 0.15 | 0.15 | 19 | 973.8 |
| 20260503234140 | 23 | 261 | 9.7 | 17.7 | 0.00 | 0.15 | 0.15 | 18 | 973.8 |
| 20260503233140 | 23 | 270 | 11.3 | 20.9 | 0.00 | 0.15 | 0.15 | 18 | 973.9 |
| 20260503232641 | 23 | 281 | 11.3 | 20.9 | 0.00 | 0.15 | 0.15 | 18 | 973.9 |
| 20260503232141 | 23 | 298 | 9.7 | 19.3 | 0.00 | 0.15 | 0.15 | 18 | 974.0 |
| 20260503231642 | 23 | 310 | 11.3 | 24.1 | 0.00 | 0.15 | 0.15 | 18 | 974.0 |
| 20260503231137 | 23 | 292 | 12.9 | 24.1 | 0.00 | 0.15 | 0.15 | 17 | 974.1 |
| 20260503230637 | 23 | 313 | 12.9 | 24.1 | 0.00 | 0.15 | 0.15 | 17 | 973.9 |
| 20260503230136 | 23 | 284 | 14.5 | 29.0 | 0.00 | 0.15 | 0.15 | 18 | 973.9 |
| 20260503225636 | 23 | 323 | 12.9 | 29.0 | 0.00 | 0.15 | 0.15 | 18 | 973.9 |
| 20260503225136 | 23 | 279 | 9.7 | 17.7 | 0.00 | 0.15 | 0.15 | 22 | 973.9 |
| 20260503224636 | 23 | 259 | 9.7 | 22.5 | 0.00 | 0.15 | 0.15 | 22 | 973.8 |
| 20260503224136 | 23 | 277 | 11.3 | 22.5 | 0.00 | 0.15 | 0.15 | 22 | 973.9 |
| 20260503223136 | 23 | 266 | 9.7 | 19.3 | 0.00 | 0.15 | 0.15 | 21 | 973.8 |
| 20260503222636 | 23 | 248 | 9.7 | 19.3 | 0.00 | 0.15 | 0.15 | 21 | 973.8 |
| 20260503222134 | 23 | 252 | 9.7 | 19.3 | 0.00 | 0.15 | 0.15 | 21 | 973.8 |
| 20260503221634 | 23 | 284 | 9.7 | 19.3 | 0.00 | 0.15 | 0.15 | 21 | 973.8 |
| 20260503221134 | 23 | 274 | 11.3 | 24.1 | 0.00 | 0.15 | 0.15 | 20 | 973.8 |
| 20260503220634 | 23 | 263 | 12.9 | 25.7 | 0.00 | 0.15 | 0.15 | 20 | 973.8 |
| 20260503220136 | 23 | 271 | 12.9 | 25.7 | 0.00 | 0.15 | 0.15 | 21 | 973.8 |
| 20260503215634 | 23 | 300 | 11.3 | 24.1 | 0.00 | 0.15 | 0.15 | 21 | 973.8 |
| 20260503215134 | 23 | 325 | 12.9 | 24.1 | 0.00 | 0.15 | 0.15 | 19 | 973.8 |
| 20260503214634 | 23 | 273 | 11.3 | 24.1 | 0.00 | 0.15 | 0.15 | 20 | 973.8 |
| 20260503214134 | 23 | 311 | 11.3 | 20.9 | 0.00 | 0.15 | 0.15 | 22 | 973.9 |
| 20260503213134 | 23 | 300 | 9.7 | 20.9 | 0.00 | 0.15 | 0.15 | 22 | 973.9 |
| 20260503212634 | 23 | 272 | 11.3 | 25.7 | 0.00 | 0.15 | 0.15 | 22 | 973.9 |
| 20260503212134 | 23 | 230 | 9.7 | 25.7 | 0.00 | 0.15 | 0.15 | 21 | 973.8 |
| 20260503211634 | 23 | 259 | 9.7 | 22.5 | 0.00 | 0.15 | 0.15 | 23 | 973.9 |
| 20260503211134 | 23 | 309 | 11.3 | 22.5 | 0.00 | 0.15 | 0.15 | 23 | 973.7 |
| 20260503210635 | 23 | 244 | 8.0 | 19.3 | 0.00 | 0.15 | 0.15 | 23 | 973.7 |
| 20260503210128 | 23 | 251 | 8.0 | 19.3 | 0.00 | 0.15 | 0.15 | 24 | 973.8 |
| 20260503205622 | 23 | 227 | 9.7 | 22.5 | 0.00 | 0.15 | 0.15 | 23 | 973.8 |
| 20260503205116 | 23 | 272 | 11.3 | 22.5 | 0.00 | 0.15 | 0.15 | 23 | 974.1 |
| 20260503204610 | 23 | 277 | 9.7 | 22.5 | 0.00 | 0.15 | 0.15 | 24 | 974.2 |
| 20260503204104 | 23 | 267 | 9.7 | 25.7 | 0.00 | 0.15 | 0.15 | 24 | 974.2 |
| 20260503203557 | 23 | 275 | 11.3 | 25.7 | 0.00 | 0.15 | 0.15 | 25 | 974.2 |
| 20260503203052 | 22 | 240 | 11.3 | 25.7 | 0.00 | 0.15 | 0.15 | 26 | 974.4 |
| 20260503202546 | 23 | 248 | 11.3 | 25.7 | 0.00 | 0.15 | 0.15 | 26 | 974.5 |
| 20260503202039 | 22 | 229 | 9.7 | 19.3 | 0.00 | 0.15 | 0.15 | 26 | 974.5 |
| 20260503201533 | 22 | 260 | 9.7 | 19.3 | 0.00 | 0.15 | 0.15 | 26 | 974.6 |
| 20260503201027 | 22 | 265 | 11.3 | 20.9 | 0.00 | 0.15 | 0.15 | 26 | 974.7 |
| 20260503200015 | 22 | 236 | 9.7 | 20.9 | 0.00 | 0.15 | 0.15 | 28 | 974.7 |
| 20260503195509 | 22 | 220 | 9.7 | 20.9 | 0.00 | 0.15 | 0.15 | 27 | 974.8 |
| 20260503195003 | 22 | 273 | 9.7 | 22.5 | 0.00 | 0.15 | 0.15 | 27 | 975.0 |
| 20260503194457 | 22 | 254 | 11.3 | 22.5 | 0.00 | 0.15 | 0.15 | 26 | 975.1 |
| 20260503193951 | 22 | 209 | 11.3 | 20.9 | 0.00 | 0.15 | 0.15 | 27 | 975.1 |
| 20260503193446 | 21 | 256 | 8.0 | 20.9 | 0.00 | 0.15 | 0.15 | 28 | 975.3 |
| 20260503192939 | 21 | 270 | 9.7 | 22.5 | 0.00 | 0.15 | 0.15 | 28 | 975.4 |
| 20260503192433 | 21 | 238 | 11.3 | 22.5 | 0.00 | 0.15 | 0.15 | 28 | 975.5 |
| 20260503191927 | 21 | 240 | 8.0 | 20.9 | 0.00 | 0.15 | 0.15 | 28 | 975.4 |
| 20260503191421 | 21 | 218 | 6.4 | 16.1 | 0.00 | 0.15 | 0.15 | 29 | 975.5 |
| 20260503190916 | 21 | 262 | 9.7 | 22.5 | 0.00 | 0.15 | 0.15 | 29 | 975.6 |
| 20260503185904 | 20 | 243 | 11.3 | 24.1 | 0.00 | 0.15 | 0.15 | 30 | 975.7 |
| 20260503185358 | 20 | 230 | 12.9 | 29.0 | 0.00 | 0.15 | 0.15 | 30 | 975.8 |
| 20260503184345 | 20 | 240 | 11.3 | 27.4 | 0.00 | 0.15 | 0.15 | 30 | 975.8 |
| 20260503183839 | 20 | 202 | 11.3 | 24.1 | 0.00 | 0.15 | 0.15 | 32 | 975.9 |
| 20260503183333 | 19 | 185 | 12.9 | 25.7 | 0.00 | 0.15 | 0.15 | 31 | 976.1 |
| 20260503182827 | 19 | 245 | 12.9 | 25.7 | 0.00 | 0.15 | 0.15 | 30 | 976.1 |
| 20260503182322 | 19 | 221 | 14.5 | 25.7 | 0.00 | 0.15 | 0.15 | 31 | 976.2 |
| 20260503181309 | 18 | 212 | 11.3 | 25.7 | 0.00 | 0.15 | 0.15 | 32 | 976.2 |
| 20260503180804 | 18 | 257 | 12.9 | 32.2 | 0.00 | 0.15 | 0.15 | 32 | 976.3 |
| 20260503180258 | 18 | 239 | 12.9 | 32.2 | 0.00 | 0.15 | 0.15 | 32 | 976.5 |
| 20260503175752 | 18 | 254 | 12.9 | 27.4 | 0.00 | 0.15 | 0.15 | 32 | 976.6 |
| 20260503175245 | 18 | 203 | 12.9 | 27.4 | 0.00 | 0.15 | 0.15 | 33 | 976.5 |
| 20260503174739 | 18 | 224 | 12.9 | 25.7 | 0.00 | 0.15 | 0.15 | 33 | 976.6 |
| 20260503174234 | 17 | 233 | 12.9 | 25.7 | 0.00 | 0.15 | 0.15 | 33 | 976.7 |
| 20260503173728 | 17 | 204 | 14.5 | 24.1 | 0.00 | 0.15 | 0.15 | 34 | 976.8 |
| 20260503173222 | 17 | 218 | 14.5 | 24.1 | 0.00 | 0.15 | 0.15 | 34 | 976.8 |
| 20260503172716 | 17 | 240 | 14.5 | 27.4 | 0.00 | 0.15 | 0.15 | 33 | 976.9 |
| 20260503172210 | 17 | 248 | 14.5 | 32.2 | 0.00 | 0.15 | 0.15 | 34 | 976.8 |
| 20260503171703 | 17 | 215 | 12.9 | 30.6 | 0.00 | 0.15 | 0.15 | 35 | 976.8 |
| 20260503170652 | 16 | 253 | 14.5 | 25.7 | 0.00 | 0.15 | 0.15 | 35 | 977.0 |
| 20260503170146 | 16 | 219 | 14.5 | 27.4 | 0.00 | 0.15 | 0.15 | 37 | 976.9 |
| 20260503150524 | 13 | 192 | 12.9 | 32.2 | 0.00 | 0.15 | 0.15 | 42 | 978.2 |
| 20260503131017 | 10 | 175 | 9.7 | 27.4 | 0.00 | 0.15 | 0.15 | 51 | 979.3 |
| 20260503110343 | 11 | 237 | 8.0 | 27.4 | 0.05 | 0.05 | 0.05 | 52 | 981.6 |
| 20260503090118 | 10 | 217 | 11.3 | 25.7 | 0.00 | 0.00 | 0.00 | 42 | 981.8 |
| 20260503081525 | 10 | 213 | 11.3 | 22.5 | 0.00 | 0.00 | 0.00 | 40 | 981.6 |
| 20260503081018 | 10 | 181 | 11.3 | 24.1 | 0.00 | 0.00 | 0.00 | 40 | 981.5 |
| 20260503080515 | 10 | 221 | 11.3 | 24.1 | 0.00 | 0.00 | 0.00 | 40 | 981.5 |
| 20260503072014 | 10 | 207 | 9.7 | 19.3 | 0.00 | 0.00 | 0.00 | 38 | 981.8 |
| 20260503071514 | 10 | 190 | 11.3 | 19.3 | 0.00 | 0.00 | 0.00 | 38 | 982.0 |
| 20260503071014 | 10 | 206 | 9.7 | 17.7 | 0.00 | 0.00 | 0.00 | 38 | 982.0 |
| 20260503054918 | 10 | 209 | 8.0 | 17.7 | 0.00 | 0.00 | 0.00 | 37 | 982.7 |
| 20260503054418 | 10 | 241 | 8.0 | 14.5 | 0.00 | 0.00 | 0.00 | 37 | 982.7 |
| 20260503053918 | 10 | 215 | 8.0 | 17.7 | 0.00 | 0.00 | 0.00 | 36 | 982.7 |
| 20260503053418 | 10 | 182 | 9.7 | 17.7 | 0.00 | 0.00 | 0.00 | 36 | 982.7 |
| 20260503052919 | 10 | 211 | 9.7 | 19.3 | 0.00 | 0.00 | 0.00 | 36 | 982.8 |
| 20260503052418 | 10 | 215 | 9.7 | 19.3 | 0.00 | 0.00 | 0.00 | 36 | 982.7 |
| 20260503051919 | 10 | 215 | 9.7 | 17.7 | 0.00 | 0.00 | 0.00 | 36 | 982.8 |
| 20260503051419 | 10 | 218 | 9.7 | 19.3 | 0.00 | 0.00 | 0.00 | 36 | 982.9 |
| 20260503050918 | 10 | 215 | 8.0 | 19.3 | 0.00 | 0.00 | 0.00 | 35 | 982.9 |
| 20260503050418 | 10 | 209 | 9.7 | 16.1 | 0.00 | 0.00 | 0.00 | 36 | 982.9 |
| 20260503045918 | 10 | 209 | 9.7 | 17.7 | 0.00 | 0.00 | 0.00 | 35 | 982.9 |
| 20260503045419 | 10 | 259 | 9.7 | 17.7 | 0.00 | 0.00 | 0.00 | 35 | 983.0 |
| 20260503044419 | 10 | 217 | 9.7 | 19.3 | 0.00 | 0.00 | 0.00 | 35 | 983.0 |
| 20260503043917 | 10 | 219 | 9.7 | 19.3 | 0.00 | 0.00 | 0.00 | 35 | 983.0 |
| 20260503043415 | 10 | 219 | 9.7 | 16.1 | 0.00 | 0.00 | 0.00 | 35 | 983.0 |
| 20260503042915 | 10 | 205 | 9.7 | 16.1 | 0.00 | 0.00 | 0.00 | 34 | 983.0 |
| 20260503042415 | 11 | 222 | 9.7 | 17.7 | 0.00 | 0.00 | 0.00 | 34 | 983.1 |
| 20260503041918 | 11 | 206 | 9.7 | 17.7 | 0.00 | 0.00 | 0.00 | 34 | 983.2 |
| 20260503041415 | 11 | 201 | 8.0 | 16.1 | 0.00 | 0.00 | 0.00 | 34 | 983.3 |
| 20260503040916 | 11 | 231 | 8.0 | 16.1 | 0.00 | 0.00 | 0.00 | 34 | 983.4 |
| 20260503035915 | 11 | 204 | 9.7 | 22.5 | 0.00 | 0.00 | 0.00 | 33 | 983.5 |